Caribou Municipal Airport Caribou US
ICAO: KCAR
IATA: CAR
Category: Medium
Scheduled Services: No

Elevation: 626 ft
TransAlt. 18000 ft.

Airport Communications:
ASOS:135.125
BOSTON CNTR:124.75
BANGOR RDO:122.3
CTAF/UNICOM:122.8

KCAR Zoom In..

Runways:

(A) RW 01 length 4003 ft width 100 ft
---- / hdg 7

(B) RW 11 length 3016 ft width 75 ft
---- / hdg 107

(C) RW 19 length 4003 ft width 100 ft
---- / hdg 187

(D) RW 29 length 3016 ft width 75 ft
---- / hdg 287

Location; KCAR
Day. 24 / Time. 12.54 Zulu
* Altimeter: 30.08
* Temperature: 09° c. 48.2°f.
* Wind from: 160° Speed 05 kn.
Dewpoint: -01° c.
Visibility: 10 Statute Miles.
Clouds: Clear (automated report).

KCAR 241254Z AUTO 16005KT 10SM CLR 09/M01 A3008 RMK AO2 SLP192 T00891011


Wind From 160°
Speed 05 kn.

 
 
jpsmedia.com for Web Design SOUNDCLOUD worldairports.se 2018   terms of use